Time;durP1;ratioP1;P1;durP2;ratioP2;P2;SDS_P1;SDS_P2;PMS_P1;PMS_P2;Temp;Humidity;BMP_temperature;BMP_pressure;BME280_temperature;BME280_humidity;BME280_pressure;Samples;Min_cycle;Max_cycle;Signal;HPM_P1;HPM_P2
2021/05/16 00:02:12;;;;;;;0.28;0.28;;;22.20;50.90;;;;;;5111886;27;20094;-41
2021/05/16 00:04:39;;;;;;;0.68;0.30;;;22.30;51.00;;;;;;5102581;28;20093;-40
2021/05/16 00:07:06;;;;;;;0.40;0.30;;;22.30;51.00;;;;;;5111178;28;20040;-39
2021/05/16 00:09:34;;;;;;;0.50;0.40;;;22.20;50.90;;;;;;5111924;27;20052;-40
2021/05/16 00:12:02;;;;;;;0.43;0.43;;;22.30;51.00;;;;;;5112347;28;20087;-39
2021/05/16 00:14:30;;;;;;;0.50;0.40;;;22.20;50.90;;;;;;5109775;28;20608;-39
2021/05/16 00:16:58;;;;;;;0.30;0.30;;;22.30;51.00;;;;;;5112678;28;20051;-41
2021/05/16 00:19:25;;;;;;;0.20;0.20;;;22.30;51.00;;;;;;5111387;28;20051;-40
2021/05/16 00:21:52;;;;;;;0.70;0.40;;;22.30;51.00;;;;;;5111536;28;20041;-40
2021/05/16 00:24:19;;;;;;;0.30;0.25;;;22.20;51.00;;;;;;5112940;28;20082;-40
2021/05/16 00:26:47;;;;;;;0.40;0.38;;;22.30;51.00;;;;;;5110785;28;20491;-40
2021/05/16 00:29:15;;;;;;;0.32;0.30;;;22.30;51.00;;;;;;5111845;28;20487;-40
2021/05/16 00:31:43;;;;;;;0.55;0.47;;;22.20;50.90;;;;;;5111815;28;20156;-39
2021/05/16 00:34:10;;;;;;;0.30;0.30;;;22.30;51.00;;;;;;5111486;27;20487;-39
2021/05/16 00:36:37;;;;;;;0.52;0.30;;;22.20;50.90;;;;;;5112213;28;20044;-41
2021/05/16 00:39:06;;;;;;;0.50;0.50;;;22.30;51.00;;;;;;5110945;28;20074;-40
2021/05/16 00:41:34;;;;;;;0.47;0.40;;;22.20;50.90;;;;;;5111572;28;20047;-39
2021/05/16 00:44:01;;;;;;;0.40;0.35;;;22.20;50.90;;;;;;5101107;28;20104;-40
2021/05/16 00:46:28;;;;;;;0.93;0.50;;;22.20;50.90;;;;;;5110245;28;20075;-43
2021/05/16 00:48:55;;;;;;;0.70;0.40;;;22.30;51.00;;;;;;5111926;28;20048;-41
2021/05/16 00:51:23;;;;;;;0.50;0.35;;;22.20;50.90;;;;;;5111291;28;20469;-40
2021/05/16 00:53:50;;;;;;;0.43;0.40;;;22.20;50.90;;;;;;5110830;28;20051;-43
2021/05/16 00:56:17;;;;;;;0.65;0.40;;;22.20;50.90;;;;;;5112013;28;20414;-39
2021/05/16 00:58:44;;;;;;;0.63;0.45;;;22.30;51.00;;;;;;5109977;28;20127;-40
2021/05/16 01:01:14;;;;;;;0.47;0.40;;;22.20;50.90;;;;;;5112121;28;20048;-41
2021/05/16 01:03:41;;;;;;;0.50;0.40;;;22.20;51.00;;;;;;5110753;28;20040;-40
2021/05/16 01:06:08;;;;;;;0.70;0.40;;;22.30;51.00;;;;;;5111254;28;20075;-41
2021/05/16 01:08:35;;;;;;;0.38;0.28;;;22.20;50.90;;;;;;5112106;28;20105;-40
2021/05/16 01:11:02;;;;;;;0.52;0.35;;;22.30;51.00;;;;;;5110186;28;20530;-40
2021/05/16 01:13:30;;;;;;;0.85;0.50;;;22.30;51.00;;;;;;5110794;28;20048;-39
2021/05/16 01:15:57;;;;;;;0.50;0.40;;;22.30;51.00;;;;;;5110630;28;20051;-40
2021/05/16 01:18:24;;;;;;;1.20;0.50;;;22.20;51.00;;;;;;5109768;28;20075;-40
2021/05/16 01:20:52;;;;;;;0.40;0.40;;;22.30;51.00;;;;;;5111939;28;20039;-39
2021/05/16 01:23:26;;;;;;;0.50;0.30;;;22.20;50.90;;;;;;5109123;28;20040;-42
2021/05/16 01:25:53;;;;;;;0.30;0.30;;;22.30;51.00;;;;;;5110426;28;20559;-42
2021/05/16 01:28:22;;;;;;;0.38;0.28;;;22.20;51.00;;;;;;5110845;28;20499;-40
2021/05/16 01:30:50;;;;;;;0.50;0.40;;;22.20;51.00;;;;;;5110315;28;20055;-40
2021/05/16 01:33:18;;;;;;;0.25;0.25;;;22.20;51.00;;;;;;5111516;28;20097;-40
2021/05/16 01:35:46;;;;;;;0.30;0.30;;;22.20;50.90;;;;;;5110408;28;20047;-39
2021/05/16 01:38:13;;;;;;;0.40;0.40;;;22.30;51.00;;;;;;5110820;28;20040;-39
2021/05/16 01:40:41;;;;;;;0.30;0.30;;;22.30;51.00;;;;;;5111150;28;20097;-40
2021/05/16 01:43:10;;;;;;;0.38;0.30;;;22.20;51.00;;;;;;5109203;27;20074;-42
2021/05/16 01:45:38;;;;;;;0.88;0.50;;;22.20;51.00;;;;;;5111112;28;20089;-40
2021/05/16 01:48:06;;;;;;;0.30;0.30;;;22.30;51.00;;;;;;5110014;28;20036;-39
2021/05/16 01:50:36;;;;;;;0.50;0.38;;;22.20;51.00;;;;;;5111054;28;20043;-39
2021/05/16 01:53:05;;;;;;;0.40;0.40;;;22.20;51.00;;;;;;5111321;28;20611;-39
2021/05/16 01:55:34;;;;;;;0.45;0.40;;;22.20;51.00;;;;;;5109225;28;20047;-39
2021/05/16 01:58:02;;;;;;;0.77;0.40;;;22.20;51.00;;;;;;5110967;28;20043;-41
2021/05/16 02:00:37;;;;;;;0.30;0.30;;;22.20;51.00;;;;;;5109743;28;20100;-41
2021/05/16 02:03:05;;;;;;;0.50;0.30;;;22.20;51.00;;;;;;5108955;28;20051;-40
2021/05/16 02:05:33;;;;;;;0.60;0.40;;;22.20;51.00;;;;;;5111167;28;20040;-41
2021/05/16 02:08:03;;;;;;;0.35;0.30;;;22.20;51.00;;;;;;5109333;28;20089;-40
2021/05/16 02:10:31;;;;;;;0.32;0.32;;;22.20;51.00;;;;;;5110588;28;20379;-40
2021/05/16 02:12:58;;;;;;;0.43;0.40;;;22.20;51.00;;;;;;5109707;28;20043;-40
2021/05/16 02:15:26;;;;;;;0.40;0.32;;;22.20;51.00;;;;;;5109209;28;20055;-40
2021/05/16 02:17:55;;;;;;;0.43;0.40;;;22.20;51.00;;;;;;5101101;28;20051;-41
2021/05/16 02:20:23;;;;;;;0.45;0.40;;;22.20;51.00;;;;;;5109565;28;20064;-40
2021/05/16 02:22:50;;;;;;;0.43;0.30;;;22.20;51.00;;;;;;5109693;28;20134;-40
2021/05/16 02:25:17;;;;;;;0.40;0.30;;;22.20;51.00;;;;;;5110511;28;20047;-40
2021/05/16 02:27:47;;;;;;;0.43;0.30;;;22.30;51.00;;;;;;5108131;28;20101;-41
2021/05/16 02:30:17;;;;;;;0.47;0.40;;;22.20;51.00;;;;;;5111088;28;20071;-39
2021/05/16 02:32:45;;;;;;;0.50;0.30;;;22.20;51.00;;;;;;5113788;28;20407;-40
2021/05/16 02:35:14;;;;;;;0.60;0.40;;;22.20;51.00;;;;;;5113464;28;20092;-40
2021/05/16 02:37:41;;;;;;;0.38;0.30;;;22.20;51.00;;;;;;5115282;28;20438;-40
2021/05/16 02:40:10;;;;;;;0.35;0.30;;;22.20;51.00;;;;;;5112679;28;20097;-40
2021/05/16 02:42:38;;;;;;;0.50;0.50;;;22.20;51.00;;;;;;5103884;28;20067;-40
2021/05/16 02:45:06;;;;;;;0.22;0.20;;;22.20;51.00;;;;;;5102740;28;20047;-40
2021/05/16 02:47:33;;;;;;;0.35;0.30;;;22.20;51.00;;;;;;5113084;28;20560;-40
2021/05/16 02:50:01;;;;;;;0.50;0.32;;;22.20;51.00;;;;;;5115004;28;20081;-40
2021/05/16 02:52:28;;;;;;;0.40;0.30;;;22.20;51.00;;;;;;5103060;28;20048;-40
2021/05/16 02:54:55;;;;;;;2.05;0.30;;;22.20;51.00;;;;;;5113137;27;20055;-41
2021/05/16 02:57:22;;;;;;;0.32;0.30;;;22.20;51.00;;;;;;5114227;28;20117;-39
2021/05/16 02:59:50;;;;;;;0.40;0.32;;;22.20;51.00;;;;;;5112691;28;20146;-42
2021/05/16 03:02:18;;;;;;;0.30;0.30;;;22.20;51.00;;;;;;5114137;28;20048;-41
2021/05/16 03:04:45;;;;;;;0.45;0.40;;;22.20;51.00;;;;;;5113132;28;20100;-41
2021/05/16 03:07:12;;;;;;;0.40;0.30;;;22.20;51.00;;;;;;5113631;28;20107;-44
2021/05/16 03:09:39;;;;;;;0.43;0.40;;;22.20;51.00;;;;;;5114274;28;20469;-44
2021/05/16 03:12:07;;;;;;;0.30;0.30;;;22.30;51.10;;;;;;5113242;27;20127;-43
2021/05/16 03:14:35;;;;;;;0.40;0.40;;;22.20;51.00;;;;;;5112532;27;20055;-44
2021/05/16 03:17:03;;;;;;;0.60;0.35;;;22.20;51.00;;;;;;5113503;28;20434;-47
2021/05/16 03:19:32;;;;;;;0.50;0.40;;;22.20;51.00;;;;;;5102040;28;20093;-43
2021/05/16 03:22:01;;;;;;;0.70;0.45;;;22.20;51.00;;;;;;5114011;28;20553;-41
2021/05/16 03:24:29;;;;;;;0.55;0.32;;;22.20;51.00;;;;;;5111642;28;20044;-44
2021/05/16 03:26:56;;;;;;;0.82;0.40;;;22.20;51.00;;;;;;5113198;28;20074;-43
2021/05/16 03:29:23;;;;;;;0.47;0.35;;;22.20;51.00;;;;;;5112793;28;20059;-45
2021/05/16 03:31:51;;;;;;;0.55;0.43;;;22.20;51.00;;;;;;5112124;28;20131;-44
2021/05/16 03:34:18;;;;;;;0.55;0.40;;;22.20;51.00;;;;;;5113371;28;20055;-41
2021/05/16 03:36:45;;;;;;;0.38;0.28;;;22.20;51.00;;;;;;5111944;27;20051;-47
2021/05/16 03:39:13;;;;;;;0.32;0.32;;;22.20;51.00;;;;;;5113313;28;20051;-42
2021/05/16 03:41:40;;;;;;;1.33;0.35;;;22.20;51.00;;;;;;5112747;28;20104;-42
2021/05/16 03:44:07;;;;;;;0.70;0.32;;;22.20;51.00;;;;;;5110192;28;20071;-43
2021/05/16 03:46:34;;;;;;;0.47;0.38;;;22.20;51.00;;;;;;5113002;28;20104;-41
2021/05/16 03:49:01;;;;;;;0.35;0.30;;;22.20;51.00;;;;;;5112765;28;20043;-41
2021/05/16 03:51:29;;;;;;;0.73;0.40;;;22.20;51.00;;;;;;5112936;27;20134;-40
2021/05/16 03:53:56;;;;;;;0.60;0.40;;;22.20;51.00;;;;;;5113231;28;20052;-41
2021/05/16 03:56:23;;;;;;;0.40;0.30;;;22.20;51.00;;;;;;5111479;27;20468;-41
2021/05/16 03:58:50;;;;;;;0.28;0.28;;;22.20;51.00;;;;;;5112991;28;20047;-39
2021/05/16 04:01:18;;;;;;;0.45;0.30;;;22.20;51.00;;;;;;5112499;28;20431;-39
2021/05/16 04:03:45;;;;;;;0.45;0.30;;;22.20;51.00;;;;;;5111291;28;20048;-40
2021/05/16 04:06:13;;;;;;;0.65;0.40;;;22.20;51.00;;;;;;5113082;28;20441;-40
2021/05/16 04:08:40;;;;;;;0.50;0.40;;;22.20;51.00;;;;;;5111601;27;20039;-41
2021/05/16 04:11:07;;;;;;;0.50;0.40;;;22.20;51.00;;;;;;5113501;27;20050;-40
2021/05/16 04:13:34;;;;;;;0.60;0.38;;;22.20;51.00;;;;;;5111581;28;20453;-40
2021/05/16 04:16:01;;;;;;;0.60;0.45;;;22.20;51.00;;;;;;5111184;27;20051;-40
2021/05/16 04:18:29;;;;;;;0.30;0.30;;;22.20;51.00;;;;;;5102578;28;20993;-40
2021/05/16 04:20:56;;;;;;;0.82;0.50;;;22.20;51.00;;;;;;5111496;28;20047;-40
2021/05/16 04:23:25;;;;;;;0.55;0.40;;;22.20;51.00;;;;;;5112196;28;20039;-40
2021/05/16 04:25:52;;;;;;;0.32;0.22;;;22.20;51.00;;;;;;5111534;28;20113;-40
2021/05/16 04:28:19;;;;;;;0.35;0.30;;;22.20;51.00;;;;;;5110289;28;20047;-40
2021/05/16 04:30:47;;;;;;;0.63;0.40;;;22.30;51.10;;;;;;5101990;28;20048;-40
2021/05/16 04:33:15;;;;;;;0.40;0.32;;;22.20;51.00;;;;;;5110885;28;20047;-40
2021/05/16 04:35:42;;;;;;;0.60;0.40;;;22.20;51.00;;;;;;5111706;28;20131;-40
2021/05/16 04:38:09;;;;;;;0.30;0.30;;;22.20;51.00;;;;;;5111233;28;20086;-39
2021/05/16 04:40:37;;;;;;;0.50;0.30;;;22.20;51.00;;;;;;5110838;28;20047;-40
2021/05/16 04:43:04;;;;;;;0.35;0.35;;;22.20;51.00;;;;;;5101491;28;20052;-40
2021/05/16 04:45:31;;;;;;;0.40;0.30;;;22.30;51.00;;;;;;5111095;28;20043;-41
2021/05/16 04:47:58;;;;;;;1.13;0.40;;;22.20;51.60;;;;;;5101141;28;20479;-40
2021/05/16 04:50:25;;;;;;;0.45;0.32;;;22.30;51.10;;;;;;5111920;28;20113;-40
2021/05/16 04:52:56;;;;;;;0.60;0.30;;;22.30;51.00;;;;;;5110640;28;20047;-40
2021/05/16 04:55:23;;;;;;;0.40;0.40;;;22.20;51.00;;;;;;5112104;28;20062;-41
2021/05/16 04:57:50;;;;;;;0.30;0.20;;;22.30;51.00;;;;;;5099575;28;20460;-40
2021/05/16 05:00:18;;;;;;;0.52;0.43;;;22.30;51.00;;;;;;5111136;28;20043;-40
2021/05/16 05:02:46;;;;;;;0.40;0.38;;;22.20;51.00;;;;;;5111451;28;20047;-40
2021/05/16 05:05:17;;;;;;;0.50;0.40;;;22.30;51.00;;;;;;5098475;28;20443;-40
2021/05/16 05:07:44;;;;;;;0.32;0.20;;;22.30;51.00;;;;;;5110571;28;20081;-39
2021/05/16 05:10:12;;;;;;;0.40;0.40;;;22.30;51.00;;;;;;5111277;28;20043;-40
2021/05/16 05:12:39;;;;;;;0.40;0.30;;;22.30;51.00;;;;;;5110596;28;20044;-40
2021/05/16 05:15:07;;;;;;;0.57;0.30;;;22.30;51.00;;;;;;5110901;28;20059;-40
2021/05/16 05:17:39;;;;;;;0.45;0.30;;;22.30;51.00;;;;;;5110445;28;20396;-42
2021/05/16 05:20:08;;;;;;;0.30;0.30;;;22.30;51.00;;;;;;5101415;28;20083;-42
2021/05/16 05:22:35;;;;;;;0.50;0.32;;;22.30;51.00;;;;;;5110903;28;20499;-41
2021/05/16 05:25:03;;;;;;;0.63;0.30;;;22.30;51.00;;;;;;5109936;27;20491;-40
2021/05/16 05:27:31;;;;;;;0.47;0.30;;;22.30;51.00;;;;;;5110958;28;20051;-41
2021/05/16 05:29:58;;;;;;;0.47;0.40;;;22.30;51.00;;;;;;5110434;28;20100;-42
2021/05/16 05:32:25;;;;;;;0.80;0.55;;;22.30;51.00;;;;;;5110428;28;20051;-40
2021/05/16 05:34:52;;;;;;;0.30;0.30;;;22.30;51.00;;;;;;5111299;28;20519;-41
2021/05/16 05:37:19;;;;;;;0.60;0.50;;;22.30;51.00;;;;;;5097439;28;20137;-42
2021/05/16 05:39:46;;;;;;;0.40;0.35;;;22.30;50.90;;;;;;5111253;28;20127;-40
2021/05/16 05:42:13;;;;;;;0.52;0.40;;;22.30;50.90;;;;;;5099048;28;20108;-42
2021/05/16 05:44:40;;;;;;;0.50;0.40;;;22.30;50.90;;;;;;5109486;28;20055;-40
2021/05/16 05:47:08;;;;;;;0.47;0.38;;;22.30;51.00;;;;;;5111357;28;20560;-40
2021/05/16 05:49:35;;;;;;;0.40;0.30;;;22.30;50.90;;;;;;5109750;28;20384;-41
2021/05/16 05:52:03;;;;;;;0.70;0.30;;;22.30;50.90;;;;;;5110993;28;20055;-42
2021/05/16 05:54:30;;;;;;;0.35;0.30;;;22.30;50.90;;;;;;5110377;28;20499;-40
2021/05/16 05:56:57;;;;;;;0.52;0.40;;;22.30;51.00;;;;;;5109156;28;20114;-40
2021/05/16 05:59:24;;;;;;;0.28;0.22;;;22.30;50.90;;;;;;5111073;28;20671;-40
2021/05/16 06:01:51;;;;;;;0.20;0.20;;;22.30;51.00;;;;;;5109999;28;20036;-44
2021/05/16 06:04:18;;;;;;;0.30;0.25;;;22.30;50.90;;;;;;5110606;28;20104;-40
2021/05/16 06:06:45;;;;;;;1.00;0.40;;;22.30;50.90;;;;;;5112642;28;20039;-40
2021/05/16 06:09:12;;;;;;;0.52;0.30;;;22.30;50.90;;;;;;5114004;27;20544;-41
2021/05/16 06:11:39;;;;;;;0.50;0.35;;;22.30;51.00;;;;;;5115600;28;20138;-41
2021/05/16 06:14:07;;;;;;;0.40;0.30;;;22.30;50.90;;;;;;5113228;28;20043;-40
2021/05/16 06:16:34;;;;;;;0.30;0.30;;;22.30;50.90;;;;;;5114544;28;20916;-40
2021/05/16 06:19:01;;;;;;;1.10;0.40;;;22.30;50.90;;;;;;5114071;28;20056;-41
2021/05/16 06:21:28;;;;;;;0.70;0.50;;;22.30;50.90;;;;;;5103058;28;20143;-42
2021/05/16 06:26:33;;;;;;;0.60;0.32;;;22.30;50.90;;;;;;5113784;28;20564;-43
2021/05/16 06:29:00;;;;;;;0.57;0.45;;;22.30;50.90;;;;;;5113659;28;20077;-43
2021/05/16 06:31:27;;;;;;;0.45;0.40;;;22.30;50.90;;;;;;5115009;28;20484;-42
2021/05/16 06:33:55;;;;;;;0.30;0.30;;;22.30;51.00;;;;;;5112220;28;20047;-40
2021/05/16 06:36:23;;;;;;;0.25;0.25;;;22.30;50.90;;;;;;5115216;27;20047;-47
2021/05/16 06:38:50;;;;;;;0.52;0.40;;;22.30;50.90;;;;;;5101935;28;20055;-44
2021/05/16 06:41:18;;;;;;;0.55;0.20;;;22.30;51.00;;;;;;5113607;27;20036;-44
2021/05/16 06:43:46;;;;;;;0.68;0.22;;;22.30;50.90;;;;;;5115007;28;20051;-45
2021/05/16 06:46:13;;;;;;;1.13;0.30;;;22.30;50.90;;;;;;5113289;28;20457;-43
2021/05/16 06:48:40;;;;;;;0.30;0.22;;;22.30;50.90;;;;;;5114084;28;20039;-44
2021/05/16 06:51:09;;;;;;;0.60;0.40;;;22.30;50.90;;;;;;5114149;28;20078;-47
2021/05/16 06:53:36;;;;;;;0.45;0.35;;;22.30;50.80;;;;;;5112770;28;20134;-45
2021/05/16 06:56:03;;;;;;;0.40;0.35;;;22.30;50.90;;;;;;5113788;28;20097;-43
2021/05/16 06:58:30;;;;;;;0.45;0.40;;;22.30;50.80;;;;;;5102993;28;20047;-46
2021/05/16 07:00:57;;;;;;;0.65;0.40;;;22.30;50.80;;;;;;5113586;28;20051;-44
2021/05/16 07:03:25;;;;;;;0.20;0.20;;;22.30;50.80;;;;;;5113911;28;20051;-42
2021/05/16 07:05:52;;;;;;;0.40;0.30;;;22.30;50.90;;;;;;5113084;27;20120;-44
2021/05/16 07:08:19;;;;;;;0.82;0.30;;;22.30;50.80;;;;;;5114019;28;20047;-42
2021/05/16 07:10:46;;;;;;;0.35;0.30;;;22.40;50.90;;;;;;5112902;28;20047;-44
2021/05/16 07:13:13;;;;;;;0.30;0.20;;;22.30;50.80;;;;;;5084893;28;21325;-46
2021/05/16 07:15:40;;;;;;;0.32;0.32;;;22.30;50.80;;;;;;5113510;28;20104;-42
2021/05/16 07:18:07;;;;;;;0.57;0.28;;;22.30;50.80;;;;;;5099648;28;20075;-47
2021/05/16 07:20:34;;;;;;;0.30;0.30;;;22.30;50.80;;;;;;5113650;28;20447;-40
2021/05/16 07:23:02;;;;;;;0.90;0.38;;;22.30;50.80;;;;;;5113189;28;20044;-41
2021/05/16 07:25:29;;;;;;;0.30;0.30;;;22.30;50.80;;;;;;5113289;27;20063;-41
2021/05/16 07:27:57;;;;;;;0.75;0.30;;;22.30;50.80;;;;;;5113914;28;20051;-41
2021/05/16 07:30:25;;;;;;;0.57;0.30;;;22.30;50.80;;;;;;5110980;28;20044;-44
2021/05/16 07:32:53;;;;;;;0.30;0.30;;;22.30;50.80;;;;;;5113335;28;20090;-41
2021/05/16 07:35:20;;;;;;;0.63;0.30;;;22.30;50.70;;;;;;5113473;28;20096;-46
2021/05/16 07:37:47;;;;;;;1.58;0.30;;;22.30;50.70;;;;;;5112131;28;20490;-44
2021/05/16 07:40:15;;;;;;;0.50;0.40;;;22.30;50.70;;;;;;5113968;28;20070;-41
2021/05/16 07:42:42;;;;;;;0.50;0.40;;;22.30;50.70;;;;;;5111693;28;20122;-44
2021/05/16 07:45:11;;;;;;;0.30;0.30;;;22.30;50.70;;;;;;5111901;28;20426;-46
2021/05/16 07:47:38;;;;;;;0.20;0.20;;;22.40;50.80;;;;;;5113033;28;20188;-40
2021/05/16 07:50:08;;;;;;;0.93;0.40;;;22.30;50.70;;;;;;5099383;28;20100;-42
2021/05/16 07:52:36;;;;;;;0.20;0.20;;;22.40;50.80;;;;;;5113229;28;20081;-42
2021/05/16 07:55:04;;;;;;;0.22;0.20;;;22.40;50.80;;;;;;5112419;27;20128;-41
2021/05/16 07:57:31;;;;;;;0.20;0.20;;;22.30;50.70;;;;;;5111852;28;20499;-45
2021/05/16 07:59:58;;;;;;;0.65;0.40;;;22.40;50.70;;;;;;5113123;28;20047;-40
2021/05/16 08:02:25;;;;;;;0.40;0.30;;;22.30;50.60;;;;;;5110929;28;20043;-41
2021/05/16 08:04:52;;;;;;;0.30;0.30;;;22.30;50.60;;;;;;5112913;28;20093;-40
2021/05/16 08:07:19;;;;;;;0.20;0.20;;;22.30;50.60;;;;;;5112508;27;20495;-42
2021/05/16 08:09:46;;;;;;;0.30;0.28;;;22.40;50.70;;;;;;5112843;28;20047;-44
2021/05/16 08:12:13;;;;;;;0.60;0.30;;;22.40;50.60;;;;;;5113425;28;20048;-41
2021/05/16 08:14:41;;;;;;;0.50;0.40;;;22.30;50.60;;;;;;5110863;27;20465;-41
2021/05/16 08:17:08;;;;;;;0.88;0.50;;;22.40;50.60;;;;;;5112477;27;20043;-44
2021/05/16 08:19:35;;;;;;;0.40;0.30;;;22.40;50.60;;;;;;5112150;28;20180;-43
2021/05/16 08:22:03;;;;;;;0.17;0.13;;;22.40;50.60;;;;;;5111674;27;20043;-41
2021/05/16 08:24:33;;;;;;;0.30;0.28;;;22.40;50.60;;;;;;5113266;28;20506;-42
2021/05/16 08:27:01;;;;;;;0.55;0.30;;;22.40;50.50;;;;;;5109875;28;20044;-41
2021/05/16 08:29:28;;;;;;;1.30;0.57;;;22.40;50.50;;;;;;5111113;28;20093;-44
2021/05/16 08:31:56;;;;;;;0.47;0.30;;;22.40;50.50;;;;;;5111725;28;20453;-44
2021/05/16 08:34:24;;;;;;;0.63;0.40;;;22.40;50.50;;;;;;5110954;28;20043;-41
2021/05/16 08:36:52;;;;;;;0.60;0.40;;;22.40;50.50;;;;;;5112147;28;20054;-41
2021/05/16 08:39:19;;;;;;;0.40;0.35;;;22.40;50.50;;;;;;5111078;27;20047;-42
2021/05/16 08:41:47;;;;;;;0.30;0.30;;;22.40;50.50;;;;;;5111862;28;20044;-39
2021/05/16 08:44:14;;;;;;;0.20;0.13;;;22.40;50.50;;;;;;5111932;28;20039;-40
2021/05/16 08:46:42;;;;;;;0.47;0.30;;;22.40;50.50;;;;;;5109360;28;20499;-40
2021/05/16 08:49:09;;;;;;;1.15;0.30;;;22.40;50.50;;;;;;5111945;28;20518;-39
2021/05/16 08:51:37;;;;;;;0.30;0.30;;;22.40;50.40;;;;;;5110902;28;20044;-39
2021/05/16 08:54:05;;;;;;;0.45;0.38;;;22.40;50.50;;;;;;5111177;28;20113;-41
2021/05/16 08:56:32;;;;;;;0.95;0.50;;;22.40;50.40;;;;;;5112435;28;20047;-39
2021/05/16 08:58:59;;;;;;;0.40;0.40;;;22.40;50.40;;;;;;5109834;28;20515;-40
2021/05/16 09:01:36;;;;;;;0.65;0.30;;;22.40;50.40;;;;;;5111310;28;20047;-39
2021/05/16 09:04:39;;;;;;;0.38;0.30;;;22.40;50.40;;;;;;5111104;28;20097;-40
2021/05/16 09:07:07;;;;;;;0.22;0.22;;;22.40;50.40;;;;;;5110708;28;20067;-39
2021/05/16 09:09:39;;;;;;;0.47;0.20;;;22.40;50.40;;;;;;5112189;27;20043;-42
2021/05/16 09:12:13;;;;;;;0.60;0.40;;;22.40;50.40;;;;;;5110980;28;20508;-40
2021/05/16 09:14:48;;;;;;;0.30;0.30;;;22.40;50.40;;;;;;5109388;27;20048;-42
2021/05/16 09:17:24;;;;;;;0.35;0.30;;;22.40;50.40;;;;;;5110770;28;20047;-39
2021/05/16 09:19:54;;;;;;;0.45;0.30;;;22.40;50.30;;;;;;5110800;27;20093;-43
2021/05/16 09:22:41;;;;;;;0.50;0.30;;;22.40;50.40;;;;;;5099478;28;20113;-45
2021/05/16 09:25:08;;;;;;;0.50;0.30;;;22.40;50.30;;;;;;5111424;28;20047;-41
2021/05/16 09:27:37;;;;;;;0.88;0.38;;;22.40;50.30;;;;;;5110064;28;20713;-40
2021/05/16 09:30:16;;;;;;;0.93;0.32;;;22.40;50.30;;;;;;5111247;27;20040;-40
2021/05/16 09:32:47;;;;;;;0.38;0.32;;;22.40;50.30;;;;;;5111501;28;20048;-39
2021/05/16 09:35:14;;;;;;;0.32;0.20;;;22.40;50.40;;;;;;5110322;28;20051;-40
2021/05/16 09:37:57;;;;;;;0.80;0.40;;;22.50;50.40;;;;;;5111322;28;20047;-42
2021/05/16 09:40:30;;;;;;;0.65;0.40;;;22.40;50.40;;;;;;5110957;28;20063;-39
2021/05/16 09:43:08;;;;;;;0.23;0.23;;;22.40;50.40;;;;;;5110569;28;20047;-42
2021/05/16 09:46:06;;;;;;;0.52;0.40;;;22.40;50.40;;;;;;5110372;28;20285;-43
2021/05/16 09:48:42;;;;;;;0.30;0.25;;;22.40;50.40;;;;;;5095674;28;20193;-41
2021/05/16 09:51:24;;;;;;;0.55;0.40;;;22.40;50.40;;;;;;5109551;28;20062;-41
2021/05/16 09:54:08;;;;;;;0.45;0.30;;;22.40;50.30;;;;;;5111275;28;20438;-40
2021/05/16 09:56:46;;;;;;;0.95;0.35;;;22.40;50.30;;;;;;5110455;28;20558;-40
2021/05/16 09:59:14;;;;;;;0.52;0.38;;;22.40;50.30;;;;;;5109636;28;20116;-40
2021/05/16 10:01:41;;;;;;;0.88;0.40;;;22.50;50.40;;;;;;5110715;28;20130;-43
2021/05/16 10:04:08;;;;;;;0.63;0.50;;;22.40;50.30;;;;;;5110066;28;20499;-43
2021/05/16 10:06:36;;;;;;;0.85;0.40;;;22.40;50.30;;;;;;5109282;28;20154;-42
2021/05/16 10:09:04;;;;;;;0.50;0.30;;;22.40;50.30;;;;;;5111037;28;20052;-45
2021/05/16 10:11:31;;;;;;;0.63;0.40;;;22.50;50.40;;;;;;5108706;28;20051;-41
2021/05/16 10:13:58;;;;;;;0.32;0.30;;;22.50;50.40;;;;;;5110733;28;20040;-43
2021/05/16 10:16:28;;;;;;;0.38;0.20;;;22.40;50.30;;;;;;5109208;28;20056;-45
2021/05/16 10:18:57;;;;;;;0.40;0.28;;;22.40;50.30;;;;;;5109762;28;20043;-42
2021/05/16 10:21:25;;;;;;;0.45;0.30;;;22.50;50.40;;;;;;5110644;28;20093;-43
2021/05/16 10:24:35;;;;;;;0.45;0.32;;;22.40;50.20;;;;;;5108627;28;20062;-47
2021/05/16 10:27:26;;;;;;;0.57;0.43;;;22.40;50.30;;;;;;5036445;28;20047;-43
2021/05/16 10:29:59;;;;;;;1.13;0.32;;;22.40;50.30;;;;;;5037415;28;20041;-45
2021/05/16 10:32:32;;;;;;;1.83;0.38;;;22.50;50.40;;;;;;5020065;28;20037;-42
2021/05/16 10:35:04;;;;;;;0.68;0.45;;;22.40;50.30;;;;;;5036427;28;20064;-41
2021/05/16 10:37:54;;;;;;;0.70;0.28;;;22.50;50.30;;;;;;5036189;28;20124;-41
2021/05/16 10:40:36;;;;;;;0.57;0.30;;;22.50;50.30;;;;;;5036519;28;20064;-44
2021/05/16 10:43:05;;;;;;;0.85;0.32;;;22.50;50.40;;;;;;5036605;28;20454;-42
2021/05/16 10:45:39;;;;;;;0.25;0.20;;;22.40;50.20;;;;;;5036853;28;20440;-41
2021/05/16 10:48:15;;;;;;;0.90;0.30;;;22.40;50.20;;;;;;5034918;28;20076;-41
2021/05/16 10:50:51;;;;;;;0.88;0.30;;;22.40;50.20;;;;;;5037301;28;20041;-40
2021/05/16 10:53:23;;;;;;;1.13;0.60;;;22.50;50.30;;;;;;5038409;28;20053;-40
2021/05/16 10:56:08;;;;;;;0.32;0.30;;;22.50;50.30;;;;;;5039661;28;20119;-39
2021/05/16 10:58:42;;;;;;;0.77;0.35;;;22.40;50.20;;;;;;5041741;28;20045;-40
2021/05/16 11:01:28;;;;;;;0.52;0.30;;;22.40;50.20;;;;;;5082521;28;20132;-42
2021/05/16 11:03:58;;;;;;;0.47;0.38;;;22.40;50.20;;;;;;5112320;28;20047;-39
2021/05/16 11:06:48;;;;;;;0.73;0.47;;;22.50;50.30;;;;;;5113763;28;20075;-41
2021/05/16 11:09:15;;;;;;;1.10;0.40;;;22.50;50.30;;;;;;5113080;28;20047;-41
2021/05/16 11:11:54;;;;;;;0.50;0.40;;;22.40;50.20;;;;;;5112656;28;20552;-40
2021/05/16 11:14:26;;;;;;;0.20;0.20;;;22.40;50.30;;;;;;5113149;28;20081;-42
2021/05/16 11:17:01;;;;;;;0.70;0.32;;;22.40;50.30;;;;;;5112517;28;20075;-40
2021/05/16 11:19:31;;;;;;;0.55;0.30;;;22.40;50.30;;;;;;5113476;28;20050;-40
2021/05/16 11:22:10;;;;;;;0.55;0.30;;;22.40;50.30;;;;;;5114099;28;20089;-40
2021/05/16 11:24:48;;;;;;;0.77;0.55;;;22.40;50.30;;;;;;5112730;28;20036;-41
2021/05/16 11:27:31;;;;;;;0.40;0.38;;;22.40;50.30;;;;;;5112351;27;20079;-39
2021/05/16 11:30:10;;;;;;;0.50;0.35;;;22.40;50.30;;;;;;5113605;28;20047;-40
2021/05/16 11:32:38;;;;;;;0.65;0.28;;;22.40;50.30;;;;;;5112272;28;20043;-41
2021/05/16 11:35:16;;;;;;;0.43;0.38;;;22.40;50.30;;;;;;5112252;28;20044;-40
2021/05/16 11:37:48;;;;;;;0.60;0.40;;;22.40;50.30;;;;;;5113748;28;20047;-40
2021/05/16 11:40:32;;;;;;;0.77;0.30;;;22.40;50.40;;;;;;5111408;27;20040;-39
2021/05/16 11:43:00;;;;;;;;;;;22.40;50.30;;;;;;5114141;28;20693;-42
2021/05/16 11:45:31;;;;;;;0.50;0.30;;;22.50;50.40;;;;;;5112695;28;19924;-40
2021/05/16 11:47:58;;;;;;;0.50;0.20;;;22.50;50.40;;;;;;5112838;27;20046;-42
2021/05/16 11:50:40;;;;;;;0.63;0.38;;;22.40;50.30;;;;;;5112917;28;20051;-39
2021/05/16 11:53:07;;;;;;;0.55;0.28;;;22.40;50.30;;;;;;5111979;28;20092;-40
2021/05/16 11:55:35;;;;;;;0.32;0.30;;;22.40;50.30;;;;;;5112668;28;20108;-40
2021/05/16 11:58:03;;;;;;;0.50;0.47;;;22.40;50.30;;;;;;5113017;28;20078;-40
2021/05/16 12:00:31;;;;;;;0.88;0.28;;;22.50;50.40;;;;;;5110388;28;20052;-41
2021/05/16 12:03:14;;;;;;;1.13;0.50;;;22.50;50.40;;;;;;5112543;28;20051;-39
2021/05/16 12:05:45;;;;;;;1.33;0.40;;;22.40;50.30;;;;;;5112142;28;20044;-40
2021/05/16 12:08:24;;;;;;;0.68;0.30;;;22.40;50.20;;;;;;5111086;28;20188;-40
2021/05/16 12:11:24;;;;;;;0.45;0.22;;;22.40;50.30;;;;;;5112420;28;20047;-40
2021/05/16 12:13:51;;;;;;;0.38;0.28;;;22.40;50.20;;;;;;5026281;28;20575;-40
2021/05/16 12:16:23;;;;;;;0.52;0.30;;;22.50;50.40;;;;;;5024614;28;20065;-40
2021/05/16 12:18:54;;;;;;;0.80;0.30;;;22.40;50.20;;;;;;5027434;28;20112;-40
2021/05/16 12:21:22;;;;;;;0.38;0.30;;;22.40;50.30;;;;;;5024130;28;20514;-39
2021/05/16 12:23:58;;;;;;;0.40;0.20;;;22.40;50.20;;;;;;5026429;28;20476;-39
2021/05/16 12:26:26;;;;;;;0.82;0.45;;;22.50;50.40;;;;;;5027739;28;20049;-40
2021/05/16 12:28:54;;;;;;;0.38;0.30;;;22.40;50.20;;;;;;5021651;28;20041;-39
2021/05/16 12:31:23;;;;;;;0.57;0.30;;;22.40;50.30;;;;;;5026537;28;20038;-40
2021/05/16 12:33:53;;;;;;;0.50;0.30;;;22.40;50.20;;;;;;5026124;28;20114;-42
2021/05/16 12:36:20;;;;;;;0.40;0.30;;;22.40;50.20;;;;;;5023772;28;20107;-41
2021/05/16 12:38:57;;;;;;;0.47;0.30;;;22.40;50.20;;;;;;5028657;28;20053;-41
2021/05/16 12:41:27;;;;;;;0.38;0.30;;;22.50;50.30;;;;;;5026003;28;20594;-39
2021/05/16 12:44:12;;;;;;;0.95;0.30;;;22.50;50.30;;;;;;5009503;28;20159;-39
2021/05/16 12:46:47;;;;;;;0.30;0.20;;;22.50;50.30;;;;;;5028467;28;20045;-40
2021/05/16 12:49:24;;;;;;;0.40;0.22;;;22.50;50.30;;;;;;5055443;28;20043;-39
2021/05/16 12:52:04;;;;;;;0.43;0.28;;;22.50;50.30;;;;;;5111005;28;20043;-40
2021/05/16 12:54:37;;;;;;;0.25;0.22;;;22.50;50.30;;;;;;5111793;28;20079;-40
2021/05/16 12:57:17;;;;;;;0.80;0.50;;;22.50;50.30;;;;;;5099676;28;20040;-40
2021/05/16 12:59:44;;;;;;;0.60;0.40;;;22.50;50.30;;;;;;5111462;28;20055;-40
2021/05/16 13:02:15;;;;;;;1.17;0.40;;;22.50;50.30;;;;;;5111224;28;20498;-40
2021/05/16 13:04:55;;;;;;;1.02;0.32;;;22.50;50.30;;;;;;5110052;28;20069;-40